createdAt,value
2023-05-10T00:00:19.841Z,101164.30
2023-05-10T00:02:49.862Z,101168.23
2023-05-10T00:05:20.327Z,101170.28
2023-05-10T00:07:48.952Z,101172.50
2023-05-10T00:10:17.734Z,101175.92
2023-05-10T00:12:46.516Z,101170.95
2023-05-10T00:15:15.396Z,101167.18
2023-05-10T00:17:44.082Z,101168.89
2023-05-10T00:20:13.129Z,101170.94
2023-05-10T00:22:43.305Z,101169.73
2023-05-10T00:25:13.401Z,101165.28
2023-05-10T00:27:42.100Z,101164.25
2023-05-10T00:30:11.408Z,101162.70
2023-05-10T00:32:41.344Z,101163.73
2023-05-10T00:35:10.419Z,101168.87
2023-05-10T00:37:41.358Z,101162.72
2023-05-10T00:40:11.680Z,101167.85
2023-05-10T00:42:45.203Z,101160.83
2023-05-10T00:45:14.920Z,101168.36
2023-05-10T00:47:43.799Z,101165.45
2023-05-10T00:50:15.095Z,101157.59
2023-05-10T00:52:44.084Z,101163.23
2023-05-10T00:55:13.250Z,101166.66
2023-05-10T00:57:41.957Z,101162.21
2023-05-10T01:00:12.412Z,101160.16
2023-05-10T01:02:43.379Z,101161.00
2023-05-10T01:05:13.390Z,101163.06
2023-05-10T01:07:42.376Z,101158.63
2023-05-10T01:10:12.266Z,101158.98
2023-05-10T01:12:42.643Z,101169.07
2023-05-10T01:15:11.697Z,101165.48
2023-05-10T01:17:41.932Z,101163.09
2023-05-10T01:20:11.490Z,101164.11
2023-05-10T01:23:31.750Z,101162.05
2023-05-10T01:26:27.839Z,101157.77
2023-05-10T01:29:21.906Z,101161.36
2023-05-10T01:32:17.524Z,101162.90
2023-05-10T01:35:03.617Z,101165.30
2023-05-10T01:37:49.585Z,101154.17
2023-05-10T01:40:26.485Z,101151.77
2023-05-10T01:43:02.548Z,101151.95
2023-05-10T01:45:42.444Z,101152.63
2023-05-10T01:48:12.134Z,101150.58
2023-05-10T01:50:44.328Z,101151.09
2023-05-10T01:53:13.686Z,101145.28
2023-05-10T01:55:53.189Z,101144.60
2023-05-10T01:58:31.552Z,101144.95
2023-05-10T02:01:03.013Z,101149.06
2023-05-10T02:03:31.983Z,101147.35
2023-05-10T02:06:00.926Z,101139.66
2023-05-10T02:08:30.439Z,101143.59
2023-05-10T02:10:59.493Z,101142.40
2023-05-10T02:13:30.189Z,101139.84
2023-05-10T02:15:58.953Z,101138.13
2023-05-10T02:18:28.310Z,101144.61
2023-05-10T02:20:58.345Z,101145.13
2023-05-10T02:23:27.261Z,101142.40
2023-05-10T02:25:55.843Z,101147.02
2023-05-10T02:28:25.093Z,101141.73
2023-05-10T02:30:53.709Z,101146.35
2023-05-10T02:33:23.039Z,101144.47
2023-05-10T02:35:52.583Z,101143.28
2023-05-10T02:38:23.006Z,101140.03
2023-05-10T02:40:52.493Z,101144.83
2023-05-10T02:43:21.248Z,101145.67
2023-05-10T02:45:50.279Z,101148.76
2023-05-10T02:48:20.143Z,101149.95
2023-05-10T02:50:52.095Z,101148.93
2023-05-10T02:53:24.517Z,101144.14
2023-05-10T02:55:53.677Z,101140.89
2023-05-10T02:58:22.372Z,101140.73
2023-05-10T03:00:51.136Z,101140.89
2023-05-10T03:03:21.878Z,101141.58
2023-05-10T03:05:55.005Z,101142.95
2023-05-10T03:08:24.372Z,101146.02
2023-05-10T03:11:27.217Z,101151.49
2023-05-10T03:14:15.238Z,101149.44
2023-05-10T03:16:50.475Z,101151.50
2023-05-10T03:19:52.427Z,101149.27
2023-05-10T03:22:27.727Z,101154.91
2023-05-10T03:24:58.313Z,101149.44
2023-05-10T03:27:28.225Z,101145.51
2023-05-10T03:29:57.388Z,101151.83
2023-05-10T03:32:28.280Z,101150.47
2023-05-10T03:34:57.762Z,101150.80
2023-05-10T03:37:27.230Z,101151.49
2023-05-10T03:39:56.120Z,101153.55
2023-05-10T03:42:25.557Z,101145.00
2023-05-10T03:44:54.959Z,101149.95
2023-05-10T03:47:23.688Z,101150.80
2023-05-10T03:49:52.603Z,101156.28
2023-05-10T03:52:21.396Z,101151.14
2023-05-10T03:54:50.378Z,101164.65
2023-05-10T03:57:18.951Z,101165.67
2023-05-10T03:59:47.566Z,101159.52
2023-05-10T04:02:16.426Z,101160.20
2023-05-10T04:04:45.291Z,101170.45
2023-05-10T04:07:14.127Z,101169.26
2023-05-10T04:09:42.950Z,101172.16
2023-05-10T04:12:12.820Z,101170.45
2023-05-10T04:14:41.797Z,101169.59
2023-05-10T04:17:10.985Z,101175.40
2023-05-10T04:19:40.210Z,101176.11
2023-05-10T04:22:10.950Z,101176.09
2023-05-10T04:24:40.225Z,101168.55
2023-05-10T04:27:10.713Z,101167.00
2023-05-10T04:29:40.129Z,101168.02
2023-05-10T04:32:11.923Z,101171.06
2023-05-10T04:34:41.732Z,101164.02
2023-05-10T04:37:11.723Z,101166.07
2023-05-10T04:39:42.293Z,101163.98
2023-05-10T04:42:12.479Z,101171.87
2023-05-10T04:44:41.636Z,101165.52
2023-05-10T04:47:12.014Z,101169.63
2023-05-10T04:49:41.423Z,101169.13
2023-05-10T04:52:10.146Z,101171.00
2023-05-10T04:54:39.648Z,101169.80
2023-05-10T04:57:09.413Z,101168.44
2023-05-10T04:59:38.418Z,101166.91
2023-05-10T05:02:09.170Z,101169.14
2023-05-10T05:04:39.043Z,101168.13
2023-05-10T05:07:08.034Z,101179.09
2023-05-10T05:09:37.155Z,101181.81
2023-05-10T05:12:06.671Z,101184.36
2023-05-10T05:14:35.520Z,101181.44
2023-05-10T05:17:04.519Z,101181.56
2023-05-10T05:19:33.587Z,101176.89
2023-05-10T05:22:02.495Z,101174.28
2023-05-10T05:24:35.256Z,101176.17
2023-05-10T05:27:04.494Z,101176.47
2023-05-10T05:29:33.883Z,101174.66
2023-05-10T05:32:02.564Z,101170.83
2023-05-10T05:34:31.373Z,101170.06
2023-05-10T05:37:00.403Z,101169.85
2023-05-10T05:39:28.986Z,101170.86
2023-05-10T05:41:57.634Z,101171.70
2023-05-10T05:44:28.610Z,101172.53
2023-05-10T05:46:57.508Z,101174.72
2023-05-10T05:49:28.192Z,101175.36
2023-05-10T05:52:03.511Z,101169.31
2023-05-10T05:54:32.298Z,101164.34
2023-05-10T05:57:02.133Z,101164.64
2023-05-10T05:59:30.856Z,101170.09
2023-05-10T06:02:00.048Z,101166.64
2023-05-10T06:04:29.361Z,101169.02
2023-05-10T06:06:59.429Z,101171.06
2023-05-10T06:09:28.193Z,101172.20
2023-05-10T06:11:57.897Z,101173.38
2023-05-10T06:14:26.668Z,101165.39
2023-05-10T06:16:56.631Z,101170.05
2023-05-10T06:19:27.284Z,101165.45
2023-05-10T06:21:56.136Z,101164.31
2023-05-10T06:24:24.864Z,101162.97
2023-05-10T06:26:53.390Z,101166.50
2023-05-10T06:29:22.841Z,101165.50
2023-05-10T06:31:52.013Z,101163.08
2023-05-10T06:34:21.333Z,101157.94
2023-05-10T06:36:50.087Z,101154.89
2023-05-10T06:39:18.768Z,101154.96
2023-05-10T06:41:47.478Z,101157.38
2023-05-10T06:44:16.437Z,101156.36
2023-05-10T06:46:45.189Z,101151.20
2023-05-10T06:49:14.470Z,101155.38
2023-05-10T06:51:43.260Z,101151.83
2023-05-10T06:54:12.276Z,101154.04
2023-05-10T06:56:41.527Z,101153.25
2023-05-10T06:59:11.324Z,101161.60
2023-05-10T07:01:40.764Z,101157.44
2023-05-10T07:04:09.542Z,101162.53
2023-05-10T07:06:38.200Z,101162.72
2023-05-10T07:09:08.647Z,101159.25
2023-05-10T07:11:38.421Z,101160.13
2023-05-10T07:14:07.190Z,101155.31
2023-05-10T07:16:37.601Z,101155.17
2023-05-10T07:19:07.072Z,101153.56
2023-05-10T07:21:37.055Z,101158.13
2023-05-10T07:24:07.111Z,101156.73
2023-05-10T07:26:35.933Z,101157.77
2023-05-10T07:29:07.463Z,101163.36
2023-05-10T07:31:38.314Z,101158.43
2023-05-10T07:34:07.712Z,101159.02
2023-05-10T07:36:37.841Z,101157.94
2023-05-10T07:39:06.506Z,101160.40
2023-05-10T07:41:36.020Z,101157.98
2023-05-10T07:44:05.958Z,101158.05
2023-05-10T07:46:34.977Z,101147.00
2023-05-10T07:49:04.998Z,101146.23
2023-05-10T07:51:41.535Z,101153.04
2023-05-10T07:54:12.494Z,101148.67
2023-05-10T07:56:46.705Z,101138.44
2023-05-10T07:59:18.775Z,101142.67
2023-05-10T08:01:49.069Z,101150.62
2023-05-10T08:04:19.281Z,101141.31
2023-05-10T08:06:52.464Z,101137.49
2023-05-10T08:09:23.126Z,101133.58
2023-05-10T08:11:54.842Z,101125.44
2023-05-10T08:14:23.884Z,101132.23
2023-05-10T08:16:52.791Z,101139.79
2023-05-10T08:19:22.425Z,101144.98
2023-05-10T08:21:51.810Z,101138.67
2023-05-10T08:24:21.621Z,101139.61
2023-05-10T08:26:50.245Z,101138.69
2023-05-10T08:29:18.935Z,101130.25
2023-05-10T08:31:47.628Z,101131.36
2023-05-10T08:34:16.598Z,101132.91
2023-05-10T08:36:45.958Z,101131.17
2023-05-10T08:39:23.319Z,101141.89
2023-05-10T08:41:45.907Z,101136.72
2023-05-10T08:44:15.124Z,101134.19
2023-05-10T08:46:45.069Z,101142.59
2023-05-10T08:49:19.502Z,101139.77
2023-05-10T08:51:52.949Z,101136.37
2023-05-10T08:54:22.796Z,101139.05
2023-05-10T08:56:51.333Z,101143.91
2023-05-10T08:59:19.963Z,101128.40
2023-05-10T09:01:50.080Z,101126.95
2023-05-10T09:04:20.307Z,101121.03
2023-05-10T09:06:49.918Z,101124.85
2023-05-10T09:09:19.289Z,101130.27
2023-05-10T09:11:47.897Z,101125.91
2023-05-10T09:14:16.466Z,101129.31
2023-05-10T09:16:45.509Z,101125.16
2023-05-10T09:19:15.341Z,101121.97
2023-05-10T09:21:44.043Z,101123.89
2023-05-10T09:24:13.262Z,101120.48
2023-05-10T09:26:52.194Z,101116.23
2023-05-10T09:29:21.884Z,101119.22
2023-05-10T09:31:52.813Z,101114.72
2023-05-10T09:34:31.570Z,101111.72
2023-05-10T09:37:02.506Z,101104.81
2023-05-10T09:39:34.201Z,101109.44
2023-05-10T09:42:09.839Z,101115.28
2023-05-10T09:44:38.969Z,101114.64
2023-05-10T09:47:07.777Z,101106.34
2023-05-10T09:49:37.821Z,101102.63
2023-05-10T09:52:08.114Z,101102.30
2023-05-10T09:54:37.154Z,101111.22
2023-05-10T09:57:07.028Z,101109.84
2023-05-10T09:59:43.352Z,101105.92
2023-05-10T10:02:11.999Z,101111.88
2023-05-10T10:04:44.144Z,101106.94
2023-05-10T10:07:13.132Z,101105.45
2023-05-10T10:09:41.745Z,101101.84
2023-05-10T10:12:10.733Z,101105.24
2023-05-10T10:14:40.148Z,101108.53
2023-05-10T10:17:09.230Z,101098.13
2023-05-10T10:19:38.498Z,101107.79
2023-05-10T10:22:07.426Z,101103.01
2023-05-10T10:24:37.344Z,101105.45
2023-05-10T10:27:43.011Z,101103.64
2023-05-10T10:30:38.432Z,101104.28
2023-05-10T10:33:49.201Z,101098.66
2023-05-10T10:36:19.112Z,101097.80
2023-05-10T10:39:00.355Z,101099.08
2023-05-10T10:41:53.687Z,101089.52
2023-05-10T10:44:30.012Z,101094.52
2023-05-10T10:47:17.774Z,101090.27
2023-05-10T10:50:01.162Z,101094.30
2023-05-10T10:52:40.546Z,101092.60
2023-05-10T10:55:22.689Z,101095.58
2023-05-10T10:57:55.746Z,101086.66
2023-05-10T11:00:38.559Z,101082.09
2023-05-10T11:03:17.357Z,101092.06
2023-05-10T11:05:49.840Z,101082.18
2023-05-10T11:08:23.396Z,101091.30
2023-05-10T11:10:55.459Z,101085.73
2023-05-10T11:13:44.521Z,101087.95
2023-05-10T11:16:19.532Z,101086.88
2023-05-10T11:19:04.994Z,101093.14
2023-05-10T11:21:35.310Z,101086.35
2023-05-10T11:24:07.315Z,101089.86
2023-05-10T11:26:36.791Z,101089.98
2023-05-10T11:29:06.084Z,101084.50
2023-05-10T11:31:35.813Z,101075.38
2023-05-10T11:34:05.102Z,101079.42
2023-05-10T11:36:35.344Z,101076.13
2023-05-10T11:39:05.795Z,101068.17
2023-05-10T11:41:35.184Z,101067.33
2023-05-10T11:44:07.144Z,101071.89
2023-05-10T11:46:36.363Z,101065.08
2023-05-10T11:49:08.030Z,101060.62
2023-05-10T11:51:37.739Z,101065.19
2023-05-10T11:54:13.678Z,101073.27
2023-05-10T11:56:43.370Z,101070.50
2023-05-10T11:59:14.097Z,101069.12
2023-05-10T12:01:43.313Z,101070.19
2023-05-10T12:04:12.657Z,101070.50
2023-05-10T12:06:42.320Z,101066.47
2023-05-10T12:09:11.664Z,101073.70
2023-05-10T12:11:43.607Z,101062.66
2023-05-10T12:14:12.207Z,101067.53
2023-05-10T12:16:41.408Z,101062.97
2023-05-10T12:19:11.002Z,101059.25
2023-05-10T12:21:41.930Z,101057.02
2023-05-10T12:24:11.643Z,101057.44
2023-05-10T12:26:40.758Z,101056.05
2023-05-10T12:29:23.578Z,101048.51
2023-05-10T12:31:57.152Z,101046.52
2023-05-10T12:34:37.005Z,101050.58
2023-05-10T12:37:06.194Z,101051.21
2023-05-10T12:39:45.622Z,101046.12
2023-05-10T12:42:16.589Z,101051.51
2023-05-10T12:44:45.811Z,101050.13
2023-05-10T12:47:16.530Z,101049.41
2023-05-10T12:49:46.811Z,101048.34
2023-05-10T12:52:16.702Z,101040.69
2023-05-10T12:54:47.342Z,101047.60
2023-05-10T12:57:17.900Z,101048.23
2023-05-10T12:59:47.217Z,101047.27
2023-05-10T13:02:16.356Z,101042.91
2023-05-10T13:04:48.849Z,101047.80
2023-05-10T13:07:18.495Z,101043.00
2023-05-10T13:09:47.811Z,101047.76
2023-05-10T13:12:16.856Z,101047.88
2023-05-10T13:14:46.922Z,101049.16
2023-05-10T13:17:16.885Z,101044.07
2023-05-10T13:19:46.166Z,101044.92
2023-05-10T13:22:22.955Z,101039.92
2023-05-10T13:24:48.340Z,101046.67
2023-05-10T13:27:18.064Z,101045.39
2023-05-10T13:29:49.176Z,101044.66
2023-05-10T13:32:18.218Z,101042.33
2023-05-10T13:34:47.497Z,101041.27
2023-05-10T13:37:18.111Z,101040.63
2023-05-10T13:39:47.024Z,101028.84
2023-05-10T13:42:16.510Z,101032.77
2023-05-10T13:44:45.580Z,101037.66
2023-05-10T13:47:15.135Z,101037.91
2023-05-10T13:49:44.936Z,101028.03
2023-05-10T13:52:14.557Z,101027.51
2023-05-10T13:54:44.884Z,101031.86
2023-05-10T13:57:17.906Z,101028.88
2023-05-10T13:59:47.788Z,101024.63
2023-05-10T14:02:19.710Z,101021.76
2023-05-10T14:04:49.978Z,101021.64
2023-05-10T14:07:20.194Z,101015.05
2023-05-10T14:09:49.500Z,101014.08
2023-05-10T14:12:17.980Z,101018.05
2023-05-10T14:14:47.171Z,101015.28
2023-05-10T14:17:17.149Z,101015.78
2023-05-10T14:19:46.487Z,101013.15
2023-05-10T14:22:16.746Z,101016.89
2023-05-10T14:24:47.901Z,101018.16
2023-05-10T14:27:16.878Z,101016.56
2023-05-10T14:29:46.067Z,101014.75
2023-05-10T14:32:15.720Z,101017.41
2023-05-10T14:34:45.230Z,101019.97
2023-05-10T14:37:14.824Z,101017.83
2023-05-10T14:39:44.911Z,101013.37
2023-05-10T14:42:13.705Z,101012.59
2023-05-10T14:44:43.236Z,101014.19
2023-05-10T14:47:13.040Z,101012.72
2023-05-10T14:49:41.718Z,101009.52
2023-05-10T14:52:14.334Z,101004.86
2023-05-10T14:54:43.699Z,101011.89
2023-05-10T14:57:12.897Z,101007.63
2023-05-10T14:59:42.581Z,101009.44
2023-05-10T15:02:13.476Z,101002.00
2023-05-10T15:04:42.938Z,101001.36
2023-05-10T15:07:14.631Z,101007.33
2023-05-10T15:09:43.814Z,100999.55
2023-05-10T15:12:12.791Z,101003.36
2023-05-10T15:14:41.984Z,100996.36
2023-05-10T15:17:10.976Z,100994.34
2023-05-10T15:19:40.086Z,101000.40
2023-05-10T15:22:09.457Z,100995.19
2023-05-10T15:24:38.830Z,100995.94
2023-05-10T15:27:07.617Z,100996.37
2023-05-10T15:29:36.783Z,100998.70
2023-05-10T15:32:06.137Z,101001.16
2023-05-10T15:34:37.180Z,100997.23
2023-05-10T15:37:09.827Z,100996.27
2023-05-10T15:39:39.663Z,100988.42
2023-05-10T15:42:08.496Z,100987.05
2023-05-10T15:44:39.218Z,100992.03
2023-05-10T15:47:07.933Z,100990.33
2023-05-10T15:49:38.360Z,100981.52
2023-05-10T15:52:07.761Z,100983.33
2023-05-10T15:54:36.847Z,100990.98
2023-05-10T15:57:06.204Z,100985.98
2023-05-10T15:59:36.142Z,100994.48
2023-05-10T16:02:05.932Z,100989.59
2023-05-10T16:04:37.564Z,100996.39
2023-05-10T16:07:06.315Z,100992.78
2023-05-10T16:09:36.308Z,100998.62
2023-05-10T16:12:05.735Z,100993.94
2023-05-10T16:14:35.795Z,101000.84
2023-05-10T16:17:05.074Z,100996.70
2023-05-10T16:19:34.180Z,100990.33
2023-05-10T16:22:03.499Z,100992.99
2023-05-10T16:24:33.276Z,100998.09
2023-05-10T16:27:02.964Z,100997.67
2023-05-10T16:29:32.112Z,100998.95
2023-05-10T16:32:01.637Z,100998.09
2023-05-10T16:34:31.107Z,100997.56
2023-05-10T16:37:00.743Z,101003.09
2023-05-10T16:39:30.229Z,101001.07
2023-05-10T16:41:59.889Z,101003.09
2023-05-10T16:44:30.176Z,101000.22
2023-05-10T16:46:59.919Z,100995.66
2023-05-10T16:49:29.994Z,101002.14
2023-05-10T16:52:00.665Z,101002.10
2023-05-10T16:54:31.632Z,101001.89
2023-05-10T16:57:02.089Z,101008.25
2023-05-10T16:59:31.100Z,101005.27
2023-05-10T17:02:00.597Z,101011.74
2023-05-10T17:04:30.519Z,101003.78
2023-05-10T17:07:00.033Z,101015.65
2023-05-10T17:09:29.652Z,101015.42
2023-05-10T17:11:58.875Z,101018.28
2023-05-10T17:14:28.407Z,101027.70
2023-05-10T17:16:58.679Z,101023.67
2023-05-10T17:19:28.151Z,101020.97
2023-05-10T17:21:57.994Z,101022.33
2023-05-10T17:24:29.180Z,101025.35
2023-05-10T17:27:00.432Z,101034.03
2023-05-10T17:29:31.801Z,101032.42
2023-05-10T17:32:01.064Z,101035.59
2023-05-10T17:34:30.979Z,101034.30
2023-05-10T17:37:00.378Z,101037.56
2023-05-10T17:39:30.054Z,101039.96
2023-05-10T17:41:59.912Z,101045.77
2023-05-10T17:44:28.858Z,101046.25
2023-05-10T17:46:58.533Z,101053.23
2023-05-10T17:49:28.537Z,101052.78
2023-05-10T17:51:58.062Z,101045.65
2023-05-10T17:54:27.395Z,101059.02
2023-05-10T17:56:58.059Z,101062.66
2023-05-10T17:59:28.269Z,101068.13
2023-05-10T18:01:57.074Z,101070.17
2023-05-10T18:04:26.544Z,101068.62
2023-05-10T18:06:57.909Z,101068.36
2023-05-10T18:09:28.069Z,101070.34
2023-05-10T18:11:57.894Z,101067.63
2023-05-10T18:14:39.622Z,101072.74
2023-05-10T18:17:01.919Z,101071.66
2023-05-10T18:19:31.605Z,101072.52
2023-05-10T18:22:01.004Z,101075.73
2023-05-10T18:24:38.908Z,101084.95
2023-05-10T18:27:01.036Z,101075.98
2023-05-10T18:29:31.058Z,101081.59
2023-05-10T18:32:00.382Z,101082.44
2023-05-10T18:34:29.869Z,101085.11
2023-05-10T18:36:59.185Z,101088.95
2023-05-10T18:39:32.557Z,101083.73
2023-05-10T18:42:02.363Z,101088.62
2023-05-10T18:44:32.286Z,101092.52
2023-05-10T18:47:01.699Z,101089.53
2023-05-10T18:49:31.129Z,101091.01
2023-05-10T18:52:00.274Z,101090.58
2023-05-10T18:54:29.915Z,101100.95
2023-05-10T18:56:58.992Z,101097.41
2023-05-10T18:59:28.131Z,101089.41
2023-05-10T19:01:57.688Z,101091.25
2023-05-10T19:04:27.235Z,101086.84
2023-05-10T19:06:56.835Z,101090.84
2023-05-10T19:09:27.722Z,101094.00
2023-05-10T19:11:57.207Z,101100.75
2023-05-10T19:14:27.658Z,101095.97
2023-05-10T19:16:57.476Z,101096.00
2023-05-10T19:19:27.459Z,101098.41
2023-05-10T19:21:56.832Z,101099.48
2023-05-10T19:24:26.613Z,101097.81
2023-05-10T19:26:57.535Z,101096.44
2023-05-10T19:29:26.313Z,101095.80
2023-05-10T19:31:57.049Z,101098.77
2023-05-10T19:34:30.167Z,101105.98
2023-05-10T19:36:59.264Z,101114.05
2023-05-10T19:39:29.337Z,101104.67
2023-05-10T19:41:59.589Z,101101.11
2023-05-10T19:44:29.286Z,101100.09
2023-05-10T19:46:59.024Z,101105.09
2023-05-10T19:49:28.180Z,101099.97
2023-05-10T19:51:57.782Z,101103.25
2023-05-10T19:54:27.710Z,101105.53
2023-05-10T19:56:56.809Z,101109.17
2023-05-10T19:59:27.614Z,101111.75
2023-05-10T20:01:56.864Z,101113.30
2023-05-10T20:04:28.211Z,101112.44
2023-05-10T20:06:57.483Z,101121.21
2023-05-10T20:09:26.065Z,101107.55
2023-05-10T20:11:56.717Z,101114.39
2023-05-10T20:14:25.654Z,101115.27
2023-05-10T20:16:54.545Z,101109.66
2023-05-10T20:19:25.347Z,101108.30
2023-05-10T20:21:56.183Z,101115.50
2023-05-10T20:24:25.056Z,101113.28
2023-05-10T20:26:54.351Z,101118.42
2023-05-10T20:29:23.642Z,101118.27
2023-05-10T20:31:52.777Z,101118.11
2023-05-10T20:34:22.282Z,101114.16
2023-05-10T20:36:51.366Z,101116.41
2023-05-10T20:39:20.284Z,101118.64
2023-05-10T20:41:49.908Z,101117.63
2023-05-10T20:44:19.144Z,101114.03
2023-05-10T20:46:50.283Z,101116.59
2023-05-10T20:49:19.672Z,101118.48
2023-05-10T20:51:49.404Z,101110.78
2023-05-10T20:54:18.910Z,101112.84
2023-05-10T20:56:48.317Z,101115.58
2023-05-10T20:59:18.716Z,101115.59
2023-05-10T21:01:48.029Z,101114.91
2023-05-10T21:04:17.293Z,101117.66
2023-05-10T21:06:46.715Z,101114.24
2023-05-10T21:09:16.863Z,101111.13
2023-05-10T21:11:45.661Z,101109.08
2023-05-10T21:14:14.431Z,101103.61
2023-05-10T21:16:44.776Z,101117.28
2023-05-10T21:19:14.065Z,101111.98
2023-05-10T21:21:43.428Z,101114.03
2023-05-10T21:24:12.122Z,101113.17
2023-05-10T21:26:41.760Z,101108.39
2023-05-10T21:29:10.788Z,101113.52
2023-05-10T21:31:39.846Z,101112.83
2023-05-10T21:34:09.275Z,101121.37
2023-05-10T21:36:38.977Z,101111.13
2023-05-10T21:39:07.823Z,101109.59
2023-05-10T21:41:36.811Z,101115.73
2023-05-10T21:44:06.065Z,101112.14
2023-05-10T21:46:35.919Z,101113.67
2023-05-10T21:49:04.881Z,101111.11
2023-05-10T21:51:34.608Z,101112.64
2023-05-10T21:54:04.693Z,101116.91
2023-05-10T21:56:33.713Z,101120.66
2023-05-10T21:59:03.444Z,101113.48
2023-05-10T22:01:32.253Z,101116.54
2023-05-10T22:06:48.853Z,101123.70
2023-05-10T22:09:18.766Z,101116.01
2023-05-10T22:11:48.870Z,101122.66
2023-05-10T22:14:18.087Z,101120.57
2023-05-10T22:16:47.491Z,101122.61
2023-05-10T22:19:16.368Z,101123.98
2023-05-10T22:21:45.599Z,101123.47
2023-05-10T22:24:14.920Z,101119.54
2023-05-10T22:26:43.900Z,101116.80
2023-05-10T22:29:13.365Z,101122.72
2023-05-10T22:31:42.733Z,101121.01
2023-05-10T22:34:11.889Z,101119.29
2023-05-10T22:36:41.285Z,101129.34
2023-05-10T22:39:10.300Z,101128.30
2023-05-10T22:41:40.171Z,101125.39
2023-05-10T22:44:08.878Z,101130.66
2023-05-10T22:46:38.344Z,101127.91
2023-05-10T22:49:07.420Z,101127.22
2023-05-10T22:51:37.300Z,101126.34
2023-05-10T22:54:07.062Z,101121.55
2023-05-10T22:56:37.737Z,101116.77
2023-05-10T22:59:06.934Z,101122.39
2023-05-10T23:01:36.289Z,101126.30
2023-05-10T23:04:05.405Z,101123.20
2023-05-10T23:06:34.759Z,101119.25
2023-05-10T23:09:03.925Z,101126.88
2023-05-10T23:11:32.737Z,101126.17
2023-05-10T23:14:02.288Z,101127.86
2023-05-10T23:16:31.436Z,101126.66
2023-05-10T23:19:00.741Z,101125.64
2023-05-10T23:21:31.963Z,101129.73
2023-05-10T23:24:01.344Z,101124.77
2023-05-10T23:26:33.050Z,101130.73
2023-05-10T23:29:03.477Z,101131.08
2023-05-10T23:31:32.922Z,101133.11
2023-05-10T23:34:03.264Z,101128.67
2023-05-10T23:36:33.424Z,101131.75
2023-05-10T23:39:04.691Z,101131.75
2023-05-10T23:41:34.000Z,101134.31
2023-05-10T23:44:03.668Z,101138.75
2023-05-10T23:46:32.821Z,101140.28
2023-05-10T23:49:02.746Z,101137.39
2023-05-10T23:51:33.015Z,101146.42
2023-05-10T23:54:02.755Z,101141.80
2023-05-10T23:56:31.922Z,101137.69
2023-05-10T23:59:00.644Z,101145.67
